Time;durP1;ratioP1;P1;durP2;ratioP2;P2;SDS_P1;SDS_P2;PMS_P1;PMS_P2;Temp;Humidity;BMP_temperature;BMP_pressure;BME280_temperature;BME280_humidity;BME280_pressure;Samples;Min_cycle;Max_cycle;Signal;HPM_P1;HPM_P2
2022/01/20 00:00:49;;;;;;;34.42;4.10;;;6.50;99.90;;;;;;5032966;28;20026;-75
2022/01/20 00:03:20;;;;;;;35.00;4.25;;;6.50;99.90;;;;;;5033098;28;20080;-75
2022/01/20 00:27:37;;;;;;;30.23;3.35;;;6.30;99.90;;;;;;5049425;28;20059;-76
2022/01/20 00:37:44;;;;;;;19.55;2.60;;;6.20;99.90;;;;;;5052583;28;20067;-76
2022/01/20 00:40:11;;;;;;;22.60;2.50;;;6.20;99.90;;;;;;5052521;28;20036;-76
2022/01/20 00:42:37;;;;;;;24.80;2.60;;;6.20;99.90;;;;;;5052478;28;20025;-76
2022/01/20 00:45:03;;;;;;;15.90;1.95;;;6.30;99.90;;;;;;5052746;28;20044;-76
2022/01/20 00:47:29;;;;;;;32.30;2.72;;;6.30;99.90;;;;;;5051668;28;20041;-76
2022/01/20 00:49:55;;;;;;;29.83;3.10;;;6.30;99.90;;;;;;5052401;28;20025;-76
2022/01/20 00:52:20;;;;;;;24.45;3.03;;;6.40;99.90;;;;;;5052133;28;20037;-76
2022/01/20 00:54:46;;;;;;;24.77;2.42;;;6.40;99.90;;;;;;5052421;28;20033;-76
2022/01/20 00:57:12;;;;;;;20.80;2.53;;;6.40;99.90;;;;;;5052182;28;20036;-76
2022/01/20 00:59:38;;;;;;;19.70;2.42;;;6.30;99.90;;;;;;5052316;28;20036;-76
2022/01/20 01:02:07;;;;;;;18.92;2.10;;;6.30;99.90;;;;;;5051707;28;20029;-76
2022/01/20 01:04:33;;;;;;;25.33;3.63;;;6.30;99.90;;;;;;5050861;28;20442;-75
2022/01/20 01:07:44;;;;;;;26.92;2.80;;;6.30;99.90;;;;;;5061773;28;20499;-74
2022/01/20 01:09:50;;;;;;;22.58;2.42;;;6.30;99.90;;;;;;5056094;28;20033;-76
2022/01/20 01:12:26;;;;;;;21.63;2.58;;;6.20;99.90;;;;;;5052065;28;20091;-76
2022/01/20 01:14:53;;;;;;;23.77;2.65;;;6.20;99.90;;;;;;5055350;28;20025;-76
2022/01/20 01:22:30;;;;;;;28.75;2.75;;;6.10;99.90;;;;;;5056135;28;20059;-76
2022/01/20 01:24:57;;;;;;;26.10;2.20;;;6.10;99.90;;;;;;5055680;28;20036;-76
2022/01/20 01:27:27;;;;;;;24.08;2.85;;;6.20;99.90;;;;;;5055432;28;20048;-76
2022/01/20 01:32:30;;;;;;;26.63;2.90;;;6.20;99.90;;;;;;5055667;28;20028;-76
2022/01/20 01:34:56;;;;;;;19.00;2.47;;;6.20;99.90;;;;;;5055343;28;20029;-76
2022/01/20 01:38:23;;;;;;;25.50;2.70;;;6.20;99.90;;;;;;5055456;28;20373;-76
2022/01/20 01:40:12;;;;;;;18.92;2.08;;;6.20;99.90;;;;;;5054765;28;20473;-75
2022/01/20 01:42:48;;;;;;;19.80;2.35;;;6.20;99.90;;;;;;5055403;28;20473;-75
2022/01/20 01:45:24;;;;;;;14.50;1.85;;;6.20;99.90;;;;;;5055224;28;20025;-75
2022/01/20 01:47:49;;;;;;;18.85;1.73;;;6.20;99.90;;;;;;5055339;28;20179;-75
2022/01/20 01:50:15;;;;;;;17.33;1.95;;;6.20;99.90;;;;;;5054741;28;20067;-74
2022/01/20 01:52:41;;;;;;;20.25;1.95;;;6.20;99.90;;;;;;5055696;28;20021;-75
2022/01/20 01:55:07;;;;;;;16.83;2.28;;;6.20;99.90;;;;;;5054532;28;20028;-75
2022/01/20 01:57:33;;;;;;;13.35;1.42;;;6.30;99.90;;;;;;5054996;28;20500;-75
2022/01/20 01:59:58;;;;;;;19.30;2.63;;;6.20;99.90;;;;;;5054672;28;20017;-75
2022/01/20 02:02:24;;;;;;;18.65;2.05;;;6.20;99.90;;;;;;5054584;28;20035;-75
2022/01/20 02:04:51;;;;;;;15.20;1.98;;;6.20;99.90;;;;;;5055223;28;20116;-76
2022/01/20 02:18:36;;;;;;;20.02;2.03;;;6.30;99.90;;;;;;5049403;28;20078;-74
2022/01/20 02:20:35;;;;;;;17.55;1.90;;;6.30;99.90;;;;;;5052749;28;20067;-74
2022/01/20 02:23:00;;;;;;;21.25;2.28;;;6.30;99.90;;;;;;5055035;28;20106;-74
2022/01/20 02:25:31;;;;;;;12.32;1.65;;;6.30;99.90;;;;;;5054129;28;20033;-74
2022/01/20 02:28:00;;;;;;;16.50;1.80;;;6.30;99.90;;;;;;5054513;28;20064;-75
2022/01/20 02:30:28;;;;;;;20.55;2.00;;;6.20;99.90;;;;;;5054366;28;20036;-74
2022/01/20 02:32:54;;;;;;;14.13;1.67;;;6.20;99.90;;;;;;5054818;28;20429;-75
2022/01/20 02:35:21;;;;;;;16.17;1.27;;;6.20;99.90;;;;;;5053927;28;20044;-74
2022/01/20 02:37:51;;;;;;;23.75;1.92;;;6.20;99.90;;;;;;5054356;28;20036;-75
2022/01/20 02:45:44;;;;;;;15.18;1.30;;;6.20;99.90;;;;;;5053606;28;20059;-74
2022/01/20 02:48:10;;;;;;;17.05;1.70;;;6.10;99.90;;;;;;5054101;28;20037;-74
2022/01/20 02:50:36;;;;;;;16.65;1.67;;;6.20;99.90;;;;;;5054038;28;20028;-74
2022/01/20 02:53:01;;;;;;;19.95;1.85;;;6.20;99.90;;;;;;5054460;28;20056;-74
2022/01/20 02:55:27;;;;;;;19.27;2.65;;;6.20;99.90;;;;;;5053731;28;20104;-74
2022/01/20 02:57:52;;;;;;;15.40;1.95;;;6.20;99.90;;;;;;5053685;28;20037;-75
2022/01/20 03:00:19;;;;;;;18.30;1.35;;;6.20;99.90;;;;;;5053643;28;20033;-74
2022/01/20 03:02:46;;;;;;;15.73;1.52;;;6.20;99.90;;;;;;5053970;28;20037;-74
2022/01/20 03:05:11;;;;;;;18.85;1.67;;;6.30;99.90;;;;;;5055112;28;20082;-75
2022/01/20 03:07:38;;;;;;;16.23;2.03;;;6.30;99.90;;;;;;5053065;28;20100;-74
2022/01/20 03:10:06;;;;;;;22.20;2.13;;;6.20;99.80;;;;;;5054035;28;20029;-74
2022/01/20 03:12:32;;;;;;;24.45;2.05;;;6.20;99.80;;;;;;5053626;28;20033;-74
2022/01/20 03:14:58;;;;;;;18.83;2.13;;;6.20;99.80;;;;;;5053606;28;20121;-74
2022/01/20 03:17:23;;;;;;;15.85;1.65;;;6.30;99.90;;;;;;5053186;28;20040;-75
2022/01/20 03:19:49;;;;;;;26.52;2.03;;;6.30;99.90;;;;;;5053465;28;20047;-74
2022/01/20 03:22:14;;;;;;;21.45;2.15;;;6.30;99.90;;;;;;5053328;28;20029;-74
2022/01/20 03:24:40;;;;;;;19.50;2.28;;;6.30;99.90;;;;;;5053688;28;20029;-74
2022/01/20 03:27:06;;;;;;;19.73;1.90;;;6.30;99.90;;;;;;5045446;28;20037;-74
2022/01/20 03:29:31;;;;;;;16.48;1.52;;;6.30;99.90;;;;;;5040689;28;20033;-75
2022/01/20 03:31:57;;;;;;;16.48;2.08;;;6.30;99.90;;;;;;5043573;28;20025;-74
2022/01/20 03:34:23;;;;;;;18.83;1.98;;;6.20;99.90;;;;;;5034657;28;20205;-74
2022/01/20 03:36:49;;;;;;;13.45;1.63;;;6.20;99.90;;;;;;5044862;28;20029;-74
2022/01/20 03:39:15;;;;;;;18.50;1.60;;;6.20;99.90;;;;;;5048154;28;20053;-75
2022/01/20 03:41:41;;;;;;;17.33;2.13;;;6.30;99.90;;;;;;5041411;28;20491;-75
2022/01/20 03:44:07;;;;;;;19.80;1.25;;;6.30;99.90;;;;;;5037448;28;20104;-76
2022/01/20 03:46:33;;;;;;;14.13;2.30;;;6.30;99.90;;;;;;5041557;28;20431;-74
2022/01/20 03:49:08;;;;;;;13.75;1.60;;;6.40;99.90;;;;;;5035885;28;20037;-75
2022/01/20 03:51:35;;;;;;;18.55;1.70;;;6.40;99.90;;;;;;5043670;28;20029;-75
2022/01/20 03:54:03;;;;;;;13.32;1.30;;;6.40;99.90;;;;;;5051724;28;20029;-75
2022/01/20 03:56:29;;;;;;;11.32;1.30;;;6.40;99.90;;;;;;5053572;28;20070;-76
2022/01/20 03:58:55;;;;;;;12.80;1.58;;;6.40;99.90;;;;;;5052798;28;20037;-76
2022/01/20 04:01:21;;;;;;;12.52;1.70;;;6.40;99.90;;;;;;5054897;28;20040;-74
2022/01/20 04:03:46;;;;;;;17.70;1.63;;;6.40;99.90;;;;;;5064830;28;20388;-76
2022/01/20 04:06:12;;;;;;;15.60;1.58;;;6.40;99.90;;;;;;5052604;28;20041;-76
2022/01/20 04:08:41;;;;;;;14.80;1.67;;;6.40;99.90;;;;;;5052368;28;20036;-76
2022/01/20 04:11:15;;;;;;;14.02;1.75;;;6.40;99.90;;;;;;5040968;28;20033;-76
2022/01/20 04:13:41;;;;;;;15.30;1.30;;;6.40;99.90;;;;;;5052887;28;20112;-75
2022/01/20 04:16:15;;;;;;;17.85;1.63;;;6.30;99.90;;;;;;5052313;28;20085;-76
2022/01/20 04:18:54;;;;;;;14.68;1.17;;;6.30;99.90;;;;;;5052651;28;20025;-76
2022/01/20 04:21:25;;;;;;;16.08;1.33;;;6.30;99.90;;;;;;5053058;28;20025;-76
2022/01/20 04:23:51;;;;;;;13.82;1.10;;;6.30;99.90;;;;;;5052250;28;20109;-77
2022/01/20 04:26:18;;;;;;;14.38;1.05;;;6.40;99.90;;;;;;5052725;28;20056;-79
2022/01/20 04:28:44;;;;;;;14.00;1.75;;;6.30;99.90;;;;;;5051892;28;20035;-79
2022/01/20 04:31:09;;;;;;;13.65;1.40;;;6.40;99.90;;;;;;5051655;28;20017;-77
2022/01/20 04:33:35;;;;;;;14.05;1.55;;;6.30;99.90;;;;;;5050883;28;20387;-74
2022/01/20 04:36:03;;;;;;;20.13;1.67;;;6.40;99.90;;;;;;5051866;28;20025;-74
2022/01/20 04:38:29;;;;;;;15.00;1.20;;;6.40;99.90;;;;;;5051730;28;20054;-75
2022/01/20 04:40:54;;;;;;;23.35;1.92;;;6.40;99.50;;;;;;5052303;28;20120;-75
2022/01/20 04:43:20;;;;;;;25.67;2.28;;;6.30;99.50;;;;;;5052626;28;20023;-75
2022/01/20 04:45:54;;;;;;;22.58;1.95;;;6.40;99.50;;;;;;5052360;28;20104;-75
2022/01/20 04:48:48;;;;;;;19.88;2.30;;;6.40;99.00;;;;;;5052829;28;20037;-75
2022/01/20 04:59:27;;;;;;;19.35;1.50;;;6.40;98.70;;;;;;5056179;28;20082;-75
2022/01/20 05:01:53;;;;;;;18.95;2.50;;;6.50;98.70;;;;;;5066483;28;20021;-74
2022/01/20 05:04:19;;;;;;;20.40;1.55;;;6.40;98.60;;;;;;5058974;28;20089;-75
2022/01/20 05:06:46;;;;;;;13.82;1.42;;;6.50;98.60;;;;;;5055667;28;20075;-75
2022/01/20 05:09:17;;;;;;;16.15;2.00;;;6.60;98.60;;;;;;5055549;28;20037;-75
2022/01/20 05:11:48;;;;;;;15.23;1.92;;;6.60;98.60;;;;;;5056116;28;20528;-75
2022/01/20 05:14:14;;;;;;;12.30;1.27;;;6.70;98.20;;;;;;5055659;28;20152;-75
2022/01/20 05:16:40;;;;;;;9.85;1.10;;;6.70;98.30;;;;;;5055735;28;20108;-75
2022/01/20 05:19:05;;;;;;;15.77;1.17;;;6.70;98.30;;;;;;5055716;28;20031;-76
2022/01/20 05:21:31;;;;;;;13.75;0.90;;;6.70;98.20;;;;;;5055922;28;20029;-76
2022/01/20 05:23:57;;;;;;;11.32;1.20;;;6.70;98.20;;;;;;5055666;28;20021;-76
2022/01/20 05:26:22;;;;;;;12.02;1.00;;;6.70;98.10;;;;;;5055734;28;20029;-76
2022/01/20 05:28:48;;;;;;;13.20;1.15;;;6.70;97.90;;;;;;5055350;28;20115;-76
2022/01/20 05:31:13;;;;;;;7.60;1.13;;;6.70;97.90;;;;;;5055975;28;20029;-76
2022/01/20 05:33:39;;;;;;;11.65;1.02;;;6.80;98.00;;;;;;5055312;28;20025;-75
2022/01/20 05:36:05;;;;;;;13.13;1.50;;;6.80;98.00;;;;;;5055705;28;20392;-76
2022/01/20 05:38:31;;;;;;;20.27;2.05;;;6.70;97.80;;;;;;5055222;28;20035;-76
2022/01/20 05:40:56;;;;;;;15.52;1.60;;;6.70;97.50;;;;;;5054972;28;20029;-75
2022/01/20 05:43:22;;;;;;;15.50;1.48;;;6.60;97.50;;;;;;5055159;28;20721;-76
2022/01/20 05:45:48;;;;;;;16.40;1.48;;;6.60;97.40;;;;;;5054861;28;20036;-75
2022/01/20 05:48:17;;;;;;;13.93;1.63;;;6.60;97.20;;;;;;5049369;28;20037;-75
2022/01/20 05:50:44;;;;;;;14.38;1.00;;;6.60;97.60;;;;;;5054848;28;20461;-76
2022/01/20 05:53:10;;;;;;;13.65;1.83;;;6.60;97.40;;;;;;5054988;28;20531;-76
2022/01/20 05:55:37;;;;;;;13.13;1.35;;;6.60;97.50;;;;;;5054771;28;20380;-76
2022/01/20 05:58:05;;;;;;;18.92;1.60;;;6.60;97.20;;;;;;5056448;28;20045;-74
2022/01/20 06:00:32;;;;;;;14.32;2.10;;;6.60;97.20;;;;;;5056345;28;20025;-72
2022/01/20 06:05:42;;;;;;;17.90;2.20;;;6.70;97.00;;;;;;5054679;28;20036;-75
2022/01/20 06:08:08;;;;;;;17.17;1.95;;;6.70;96.70;;;;;;5055298;28;20033;-75
2022/01/20 06:10:34;;;;;;;19.55;2.25;;;6.70;96.50;;;;;;5054742;28;20025;-75
2022/01/20 06:13:01;;;;;;;14.60;2.03;;;6.70;95.60;;;;;;5055043;28;20029;-75
2022/01/20 06:15:26;;;;;;;13.85;1.88;;;6.60;94.90;;;;;;5054763;28;20029;-75
2022/01/20 06:17:53;;;;;;;18.25;1.83;;;6.60;94.80;;;;;;5054695;28;20522;-75
2022/01/20 06:20:19;;;;;;;14.40;2.03;;;6.60;94.70;;;;;;5054471;28;20112;-75
2022/01/20 06:22:44;;;;;;;15.38;1.88;;;6.60;94.00;;;;;;5054417;28;20115;-75
2022/01/20 06:25:10;;;;;;;13.23;1.83;;;6.60;94.00;;;;;;5054191;28;20056;-75
2022/01/20 06:27:37;;;;;;;16.35;1.48;;;6.60;93.90;;;;;;5054300;28;20037;-75
2022/01/20 06:30:04;;;;;;;22.27;2.13;;;6.60;93.60;;;;;;5054277;28;20491;-75
2022/01/20 06:32:31;;;;;;;15.57;2.13;;;6.70;93.40;;;;;;5053949;28;20476;-75
2022/01/20 06:34:57;;;;;;;15.43;2.03;;;6.70;93.50;;;;;;5054141;28;20029;-75
2022/01/20 06:37:22;;;;;;;14.02;1.73;;;6.70;93.40;;;;;;5053726;28;20469;-77
2022/01/20 06:39:48;;;;;;;14.43;1.27;;;6.60;91.80;;;;;;5054381;28;20037;-77
2022/01/20 06:42:14;;;;;;;11.45;1.30;;;6.60;92.40;;;;;;5053495;28;20029;-80
2022/01/20 06:44:39;;;;;;;11.40;1.30;;;6.80;92.90;;;;;;5054457;28;20033;-93
2022/01/20 06:47:06;;;;;;;12.23;1.52;;;6.80;91.90;;;;;;5053782;28;20032;-76
2022/01/20 06:49:32;;;;;;;10.15;1.55;;;6.90;90.50;;;;;;5054220;28;20033;-75
2022/01/20 06:51:58;;;;;;;10.80;1.45;;;6.90;90.50;;;;;;5053862;28;20039;-75
2022/01/20 06:54:25;;;;;;;14.20;2.10;;;6.90;90.20;;;;;;5054248;28;20029;-76
2022/01/20 06:56:51;;;;;;;10.35;1.25;;;6.90;90.00;;;;;;5053663;28;20079;-75
2022/01/20 06:59:18;;;;;;;12.10;1.38;;;6.70;89.50;;;;;;5063913;28;20021;-74
2022/01/20 07:01:46;;;;;;;10.23;1.52;;;6.70;88.40;;;;;;5057097;28;20040;-75
2022/01/20 07:04:13;;;;;;;10.63;1.08;;;6.40;89.90;;;;;;5053327;28;20032;-76
2022/01/20 07:06:40;;;;;;;10.18;1.17;;;6.20;90.60;;;;;;5051961;28;20088;-75
2022/01/20 07:09:10;;;;;;;7.30;0.73;;;6.10;91.40;;;;;;5050564;28;20033;-76
2022/01/20 07:11:39;;;;;;;10.40;1.30;;;6.10;91.50;;;;;;5053165;28;20040;-75
2022/01/20 07:14:07;;;;;;;7.63;0.52;;;5.90;91.60;;;;;;5052932;28;20033;-75
2022/01/20 07:16:33;;;;;;;13.40;0.82;;;6.00;92.00;;;;;;5053317;28;20440;-74
2022/01/20 07:18:59;;;;;;;11.77;1.73;;;5.90;91.80;;;;;;5053151;28;20041;-75
2022/01/20 07:21:25;;;;;;;7.65;0.95;;;5.90;91.90;;;;;;5053552;28;20380;-79
2022/01/20 07:23:51;;;;;;;8.18;0.73;;;6.00;92.00;;;;;;5052505;28;20040;-78
2022/01/20 07:26:17;;;;;;;8.18;0.85;;;6.00;91.50;;;;;;5053154;28;20506;-79
2022/01/20 07:28:43;;;;;;;9.93;0.80;;;5.90;91.20;;;;;;5052848;28;20447;-78
2022/01/20 07:31:09;;;;;;;8.18;1.33;;;5.90;91.40;;;;;;5052740;28;20021;-78
2022/01/20 07:33:35;;;;;;;7.78;0.80;;;6.00;91.50;;;;;;5052612;28;20383;-78
2022/01/20 07:36:01;;;;;;;8.40;0.70;;;6.10;91.40;;;;;;5052409;28;20472;-78
2022/01/20 07:38:27;;;;;;;10.52;1.13;;;6.10;91.20;;;;;;5052650;28;20052;-78
2022/01/20 07:40:53;;;;;;;9.15;0.98;;;6.10;90.80;;;;;;5053030;28;20104;-78
2022/01/20 07:43:19;;;;;;;9.23;0.88;;;6.10;90.90;;;;;;5052798;28;20171;-77
2022/01/20 07:45:45;;;;;;;11.45;1.77;;;6.20;90.90;;;;;;5053200;28;20029;-76
2022/01/20 07:48:10;;;;;;;11.43;1.02;;;6.20;90.50;;;;;;5052595;28;20028;-76
2022/01/20 07:50:36;;;;;;;10.63;1.27;;;6.10;90.50;;;;;;5053015;28;20032;-76
2022/01/20 07:53:03;;;;;;;12.20;1.58;;;6.10;90.70;;;;;;5053464;28;20025;-76
2022/01/20 07:55:28;;;;;;;11.10;1.02;;;6.10;90.90;;;;;;5055148;28;20040;-76
2022/01/20 07:57:54;;;;;;;9.18;0.90;;;6.10;90.80;;;;;;5064355;28;20033;-77
2022/01/20 08:00:21;;;;;;;8.50;0.75;;;6.20;90.80;;;;;;5064699;28;20054;-78
2022/01/20 08:02:47;;;;;;;8.43;0.90;;;6.20;90.70;;;;;;5058135;28;20041;-78
2022/01/20 08:05:13;;;;;;;9.70;0.88;;;6.30;90.70;;;;;;5050832;28;20527;-77
2022/01/20 08:07:38;;;;;;;8.68;1.13;;;6.30;90.50;;;;;;5051939;28;20056;-77
2022/01/20 08:10:05;;;;;;;9.30;1.08;;;6.30;90.40;;;;;;5052189;28;20021;-77
2022/01/20 08:12:31;;;;;;;13.95;1.95;;;6.30;90.40;;;;;;5052038;28;20028;-77
2022/01/20 08:14:58;;;;;;;8.95;1.58;;;6.30;90.40;;;;;;5052697;28;20036;-77
2022/01/20 08:17:24;;;;;;;8.93;1.13;;;6.30;90.50;;;;;;5052033;28;20047;-78
2022/01/20 08:19:50;;;;;;;11.95;1.15;;;6.30;90.50;;;;;;5052475;28;20025;-76
2022/01/20 08:22:15;;;;;;;16.13;1.77;;;6.30;90.40;;;;;;5053223;28;20536;-79
2022/01/20 08:24:41;;;;;;;9.57;1.42;;;6.30;90.30;;;;;;5056563;28;20125;-78
2022/01/20 08:27:09;;;;;;;8.50;1.13;;;6.20;90.60;;;;;;5056264;28;20434;-78
2022/01/20 08:29:35;;;;;;;17.02;1.20;;;6.30;90.70;;;;;;5056321;28;20057;-78
2022/01/20 08:32:01;;;;;;;11.82;1.00;;;6.30;90.70;;;;;;5054291;28;20055;-79
2022/01/20 08:34:26;;;;;;;13.73;1.42;;;6.40;90.80;;;;;;5057337;28;20449;-79
2022/01/20 08:36:55;;;;;;;13.80;1.67;;;6.40;90.80;;;;;;5056791;28;20484;-77
2022/01/20 08:41:57;;;;;;;11.45;2.65;;;6.50;90.50;;;;;;5057070;28;20028;-76
2022/01/20 08:44:23;;;;;;;11.85;2.20;;;6.40;91.00;;;;;;5056469;28;20510;-78
2022/01/20 08:46:49;;;;;;;14.63;1.80;;;6.40;91.40;;;;;;5055604;28;20040;-77
2022/01/20 08:49:14;;;;;;;12.88;1.58;;;6.40;91.50;;;;;;5056581;28;20037;-77
2022/01/20 08:51:40;;;;;;;8.52;0.93;;;6.40;91.70;;;;;;5055615;28;20095;-77
2022/01/20 08:54:07;;;;;;;14.35;1.75;;;6.50;91.80;;;;;;5055823;28;20464;-77
2022/01/20 08:56:34;;;;;;;11.18;1.83;;;6.60;91.60;;;;;;5070760;28;20055;-77
2022/01/20 08:59:07;;;;;;;10.68;1.58;;;6.60;91.30;;;;;;5077247;28;20017;-76
2022/01/20 09:01:34;;;;;;;11.70;1.45;;;6.70;91.50;;;;;;5060280;28;20048;-77
2022/01/20 09:04:00;;;;;;;11.13;1.55;;;6.80;91.20;;;;;;5056244;28;20044;-77
2022/01/20 09:06:26;;;;;;;11.35;1.35;;;6.80;91.50;;;;;;5056668;28;20045;-80
2022/01/20 09:08:52;;;;;;;15.10;1.70;;;6.90;91.00;;;;;;5056264;28;20075;-79
2022/01/20 09:11:24;;;;;;;11.55;1.65;;;6.80;90.20;;;;;;5056288;28;20028;-80
2022/01/20 09:16:36;;;;;;;10.40;1.20;;;6.40;90.90;;;;;;5056357;28;20052;-77
2022/01/20 09:19:03;;;;;;;9.65;1.10;;;6.10;91.80;;;;;;5055936;28;20036;-78
2022/01/20 09:21:29;;;;;;;11.75;1.40;;;5.90;92.50;;;;;;5055415;28;20035;-77
2022/01/20 09:23:55;;;;;;;10.50;1.05;;;5.80;93.00;;;;;;5054343;28;20029;-77
2022/01/20 09:26:22;;;;;;;8.88;1.25;;;5.80;93.30;;;;;;5055300;28;20056;-77
2022/01/20 09:28:48;;;;;;;13.10;1.35;;;5.90;93.50;;;;;;5054206;28;20393;-77
2022/01/20 09:31:14;;;;;;;14.05;1.00;;;6.00;94.20;;;;;;5055559;28;20032;-76
2022/01/20 09:33:40;;;;;;;10.05;1.35;;;6.10;94.50;;;;;;5055148;28;20029;-80
2022/01/20 09:36:12;;;;;;;11.85;1.27;;;6.10;94.70;;;;;;5054659;28;20020;-78
2022/01/20 09:38:38;;;;;;;13.45;1.35;;;6.10;94.70;;;;;;5055342;28;20029;-77
2022/01/20 09:41:05;;;;;;;10.82;1.30;;;6.30;94.80;;;;;;5054861;28;20041;-74
2022/01/20 09:43:31;;;;;;;9.48;1.08;;;6.30;94.40;;;;;;5054712;28;20029;-77
2022/01/20 09:45:58;;;;;;;11.02;1.35;;;6.30;94.30;;;;;;5055076;28;20017;-74
2022/01/20 09:48:25;;;;;;;12.80;2.25;;;6.30;94.60;;;;;;5054634;28;20503;-77
2022/01/20 09:50:53;;;;;;;12.90;1.33;;;6.40;94.60;;;;;;5055717;28;20032;-75
2022/01/20 09:53:19;;;;;;;13.52;1.00;;;6.50;94.60;;;;;;5059185;28;20033;-75
2022/01/20 09:55:46;;;;;;;11.65;1.05;;;6.60;94.50;;;;;;5078529;28;20068;-81
2022/01/20 09:58:12;;;;;;;8.02;1.40;;;6.60;94.40;;;;;;5072061;28;20017;-80
2022/01/20 10:00:41;;;;;;;9.40;1.10;;;6.70;94.10;;;;;;5056926;28;20029;-82
2022/01/20 10:03:12;;;;;;;10.90;1.98;;;6.80;93.70;;;;;;5055945;28;20052;-80
2022/01/20 10:05:45;;;;;;;12.38;1.50;;;6.90;93.70;;;;;;5055444;28;20028;-79
2022/01/20 10:08:17;;;;;;;11.63;0.98;;;7.00;93.80;;;;;;5055774;28;20036;-80
2022/01/20 10:10:52;;;;;;;13.68;1.85;;;7.00;93.50;;;;;;5055676;28;20028;-80
2022/01/20 10:13:25;;;;;;;13.98;1.63;;;7.20;93.60;;;;;;5055521;28;20021;-80
2022/01/20 10:16:10;;;;;;;9.70;1.52;;;7.20;93.00;;;;;;5055190;28;20049;-86
2022/01/20 10:18:52;;;;;;;16.02;1.15;;;7.20;92.80;;;;;;5054068;28;20044;-83
2022/01/20 10:21:26;;;;;;;12.52;1.20;;;7.20;92.70;;;;;;5048074;28;20522;-80
2022/01/20 10:23:52;;;;;;;10.93;1.60;;;7.30;92.60;;;;;;5044993;28;20055;-79
2022/01/20 10:26:20;;;;;;;13.63;1.65;;;7.30;92.00;;;;;;5051972;28;20057;-79
2022/01/20 10:28:54;;;;;;;14.20;2.28;;;7.30;91.90;;;;;;5048418;28;20086;-78
2022/01/20 10:31:38;;;;;;;;;;;7.30;92.20;;;;;;5044976;28;20052;-79
2022/01/20 10:34:07;;;;;;;14.55;1.80;;;7.30;92.00;;;;;;5044053;28;19999;-79
2022/01/20 10:36:40;;;;;;;17.45;2.75;;;7.30;92.00;;;;;;5053998;28;20112;-82
2022/01/20 10:39:06;;;;;;;10.73;1.88;;;7.30;92.00;;;;;;5052422;28;20476;-79
2022/01/20 10:41:39;;;;;;;19.23;2.08;;;7.30;91.60;;;;;;5052839;28;20040;-79
2022/01/20 10:44:14;;;;;;;;;;;7.10;91.40;;;;;;5054700;28;20079;-78
2022/01/20 10:46:47;;;;;;;17.67;2.10;;;7.00;91.80;;;;;;5051243;28;19925;-76
2022/01/20 10:49:13;;;;;;;;;;;7.00;92.10;;;;;;5054739;28;20104;-80
2022/01/20 10:51:39;;;;;;;14.05;1.52;;;7.00;92.20;;;;;;5062869;28;19935;-78
2022/01/20 10:54:09;;;;;;;11.00;1.92;;;7.00;92.30;;;;;;5063815;28;20368;-76
2022/01/20 10:56:50;;;;;;;11.93;2.42;;;7.00;92.10;;;;;;5054539;28;20063;-77
2022/01/20 10:59:17;;;;;;;18.38;2.03;;;6.90;92.50;;;;;;5051963;28;20033;-77
2022/01/20 11:01:42;;;;;;;17.83;3.20;;;6.90;92.30;;;;;;5051457;28;20021;-77
2022/01/20 11:04:09;;;;;;;11.45;1.55;;;6.90;91.90;;;;;;5050872;28;20036;-77
2022/01/20 11:06:36;;;;;;;13.60;2.05;;;7.00;92.30;;;;;;5051563;28;20119;-76
2022/01/20 11:09:06;;;;;;;18.75;1.98;;;7.10;91.70;;;;;;5051450;28;20051;-77
2022/01/20 11:11:33;;;;;;;11.77;1.75;;;7.20;91.30;;;;;;5051803;28;20128;-77
2022/01/20 11:13:59;;;;;;;12.23;1.95;;;7.30;91.30;;;;;;5051420;28;20389;-77
2022/01/20 11:16:26;;;;;;;12.18;1.30;;;7.40;91.20;;;;;;5053322;28;20032;-78
2022/01/20 11:18:51;;;;;;;17.55;2.08;;;7.50;91.20;;;;;;5052365;28;20416;-76
2022/01/20 11:21:25;;;;;;;7.95;0.90;;;7.70;91.30;;;;;;5052701;28;20082;-76
2022/01/20 11:23:51;;;;;;;17.05;1.42;;;7.80;90.40;;;;;;5052042;28;20020;-76
2022/01/20 11:26:16;;;;;;;12.35;1.20;;;7.80;88.60;;;;;;5051866;28;20044;-75
2022/01/20 11:28:59;;;;;;;10.95;1.50;;;7.70;86.10;;;;;;5052625;28;20107;-76
2022/01/20 11:31:34;;;;;;;11.37;1.53;;;7.60;86.00;;;;;;5052479;28;20081;-75
2022/01/20 11:34:00;;;;;;;16.83;1.48;;;7.60;86.40;;;;;;5052130;28;20025;-75
2022/01/20 11:36:27;;;;;;;10.07;1.30;;;7.60;87.30;;;;;;5051831;28;20025;-75
2022/01/20 11:39:01;;;;;;;12.45;1.65;;;7.60;85.60;;;;;;5052195;28;20031;-74
2022/01/20 11:41:49;;;;;;;8.75;1.30;;;7.60;86.90;;;;;;5052119;28;20029;-74
2022/01/20 11:44:26;;;;;;;11.68;1.17;;;7.60;86.60;;;;;;5051899;28;20380;-74
2022/01/20 11:46:53;;;;;;;13.27;1.27;;;7.60;86.10;;;;;;5052234;28;20072;-73
2022/01/20 11:49:21;;;;;;;5.55;0.80;;;7.70;87.20;;;;;;5056824;28;20094;-73
2022/01/20 11:51:54;;;;;;;11.82;1.48;;;7.60;86.40;;;;;;5052169;28;20036;-74
2022/01/20 11:54:26;;;;;;;;;;;7.60;85.60;;;;;;5053287;28;20108;-74
2022/01/20 11:57:04;;;;;;;9.63;0.88;;;7.50;85.10;;;;;;5052561;28;20301;-74
2022/01/20 11:59:45;;;;;;;11.90;1.08;;;7.50;86.20;;;;;;5049329;28;20029;-75
2022/01/20 12:02:25;;;;;;;13.05;0.93;;;7.20;86.90;;;;;;5052519;28;20021;-73
2022/01/20 12:04:51;;;;;;;9.02;0.80;;;6.90;91.50;;;;;;5052103;28;20036;-74
2022/01/20 12:07:29;;;;;;;5.43;0.60;;;6.40;93.20;;;;;;5051275;28;20094;-73
2022/01/20 12:10:11;;;;;;;6.65;0.70;;;6.10;94.20;;;;;;5051691;28;20072;-73
2022/01/20 12:12:39;;;;;;;3.75;0.50;;;5.90;95.20;;;;;;5051531;28;20472;-74
2022/01/20 12:15:17;;;;;;;5.28;0.43;;;6.00;95.60;;;;;;5051393;28;20095;-74
2022/01/20 12:17:50;;;;;;;6.90;0.40;;;6.20;95.70;;;;;;5049897;28;20079;-75
2022/01/20 12:20:17;;;;;;;5.22;0.65;;;6.40;96.00;;;;;;5051106;28;20383;-73
2022/01/20 12:22:44;;;;;;;7.50;0.47;;;6.60;95.90;;;;;;5051224;28;20412;-74
2022/01/20 12:25:18;;;;;;;4.70;0.75;;;6.90;96.10;;;;;;5051560;28;20464;-74
2022/01/20 12:27:43;;;;;;;4.55;1.20;;;7.10;95.80;;;;;;5058779;28;20070;-74
2022/01/20 12:30:21;;;;;;;12.07;1.00;;;7.20;95.10;;;;;;5057877;28;20066;-74
2022/01/20 12:33:08;;;;;;;9.38;0.80;;;7.30;94.30;;;;;;5055456;28;20029;-74
2022/01/20 12:35:41;;;;;;;6.93;0.90;;;7.50;94.90;;;;;;5045364;28;20021;-74
2022/01/20 12:38:27;;;;;;;10.45;1.25;;;7.70;94.30;;;;;;5051252;28;20033;-76
2022/01/20 12:41:02;;;;;;;7.93;1.10;;;7.90;93.70;;;;;;5051756;28;20108;-74
2022/01/20 12:43:38;;;;;;;7.60;1.20;;;7.90;92.00;;;;;;5051870;28;20170;-73
2022/01/20 12:46:09;;;;;;;8.13;1.05;;;7.80;91.10;;;;;;5052890;28;20029;-75
2022/01/20 12:48:35;;;;;;;10.35;0.82;;;7.90;90.80;;;;;;5052912;28;20094;-75
2022/01/20 12:51:07;;;;;;;14.13;1.95;;;7.90;90.40;;;;;;5033356;28;20476;-74
2022/01/20 12:53:42;;;;;;;11.25;1.77;;;7.90;90.30;;;;;;5040293;28;20100;-76
2022/01/20 12:56:13;;;;;;;15.73;1.75;;;7.90;88.20;;;;;;5051854;28;20082;-77
2022/01/20 12:58:51;;;;;;;11.18;1.23;;;7.70;86.90;;;;;;5052651;28;20120;-77
2022/01/20 13:01:18;;;;;;;8.98;1.33;;;7.50;88.70;;;;;;5049334;28;20025;-77
2022/01/20 13:03:43;;;;;;;12.65;1.17;;;7.40;87.80;;;;;;5052049;28;20033;-77
2022/01/20 13:06:20;;;;;;;9.80;1.42;;;7.30;87.60;;;;;;5051197;28;20366;-77
2022/01/20 13:09:17;;;;;;;11.13;1.45;;;7.30;88.70;;;;;;5050883;28;20480;-77
2022/01/20 13:14:22;;;;;;;14.00;2.60;;;7.40;86.70;;;;;;5055487;28;20116;-78
2022/01/20 13:16:52;;;;;;;16.45;2.70;;;7.40;86.80;;;;;;5054754;28;20468;-77
2022/01/20 13:19:19;;;;;;;16.45;2.60;;;7.40;86.50;;;;;;5055255;28;20025;-77
2022/01/20 13:21:51;;;;;;;14.93;1.90;;;7.40;86.70;;;;;;5054257;28;20045;-76
2022/01/20 13:24:28;;;;;;;9.15;1.38;;;7.30;86.40;;;;;;5054837;28;20469;-78
2022/01/20 13:26:55;;;;;;;13.18;1.35;;;7.40;89.00;;;;;;5050812;28;20040;-79
2022/01/20 13:29:22;;;;;;;10.75;1.33;;;7.60;87.90;;;;;;5051727;28;20587;-78
2022/01/20 13:31:55;;;;;;;11.75;1.45;;;7.70;87.90;;;;;;5054556;28;20025;-78
2022/01/20 13:34:21;;;;;;;10.38;2.03;;;7.80;86.50;;;;;;5054782;28;20426;-79
2022/01/20 13:36:49;;;;;;;10.93;1.65;;;7.90;87.00;;;;;;5054098;28;20073;-78
2022/01/20 13:39:33;;;;;;;11.77;2.10;;;7.90;87.00;;;;;;5053544;28;20021;-78
2022/01/20 13:42:21;;;;;;;12.63;1.70;;;7.80;86.00;;;;;;5055781;28;20036;-78
2022/01/20 13:45:13;;;;;;;9.55;1.30;;;7.70;85.30;;;;;;5052993;28;20021;-78
2022/01/20 13:47:54;;;;;;;11.70;1.15;;;7.70;86.60;;;;;;5050960;28;20037;-77
2022/01/20 13:50:30;;;;;;;12.55;1.60;;;7.60;84.00;;;;;;5054226;28;20041;-77
2022/01/20 13:52:56;;;;;;;14.98;1.63;;;7.60;84.10;;;;;;5054063;28;20032;-76
2022/01/20 13:55:23;;;;;;;14.95;2.22;;;7.30;83.90;;;;;;5054279;28;20052;-77
2022/01/20 13:57:49;;;;;;;13.65;1.25;;;7.20;84.20;;;;;;5054005;28;20048;-78
2022/01/20 14:00:18;;;;;;;11.88;1.70;;;7.20;85.30;;;;;;5053053;28;20431;-78
2022/01/20 14:02:48;;;;;;;9.23;0.95;;;7.10;86.10;;;;;;5054296;28;20427;-78
2022/01/20 14:05:16;;;;;;;9.55;1.10;;;7.20;86.00;;;;;;5054672;28;20028;-78
2022/01/20 14:07:42;;;;;;;7.78;1.35;;;7.20;85.90;;;;;;5053642;28;20051;-79
2022/01/20 14:10:07;;;;;;;11.82;1.25;;;7.20;85.90;;;;;;5054001;28;20100;-76